Time;durP1;ratioP1;P1;durP2;ratioP2;P2;SDS_P1;SDS_P2;PMS_P1;PMS_P2;Temp;Humidity;BMP_temperature;BMP_pressure;BME280_temperature;BME280_humidity;BME280_pressure;Samples;Min_cycle;Max_cycle;Signal;HPM_P1;HPM_P2
2021/11/27 00:01:00;;;;;;;70.55;41.00;;;;;;;3.58;79.82;94709.48;1820144;77;27396;-85
2021/11/27 00:03:28;;;;;;;87.37;46.35;;;;;;;3.59;79.89;94711.63;1820049;77;25795;-84
2021/11/27 00:05:57;;;;;;;95.17;48.87;;;;;;;3.54;79.83;94706.16;1820041;77;25747;-84
2021/11/27 00:08:25;;;;;;;94.72;49.77;;;;;;;3.54;79.89;94706.16;1820237;77;26046;-83
2021/11/27 00:10:55;;;;;;;93.47;48.92;;;;;;;3.54;79.94;94708.83;1820219;77;25730;-83
2021/11/27 00:13:24;;;;;;;86.22;45.92;;;;;;;3.51;79.89;94708.77;1820116;77;27556;-83
2021/11/27 00:15:52;;;;;;;89.13;47.15;;;;;;;3.51;79.97;94711.95;1820114;78;26512;-85
2021/11/27 00:18:22;;;;;;;92.50;47.67;;;;;;;3.53;80.01;94712.54;1820144;77;25786;-84
2021/11/27 00:21:02;;;;;;;87.97;46.18;;;;;;;3.57;80.04;94718.52;1820139;77;26287;-83
2021/11/27 00:23:31;;;;;;;87.95;46.33;;;;;;;3.58;79.99;94719.33;1820348;78;25621;-84
2021/11/27 00:25:59;;;;;;;81.53;45.78;;;;;;;3.58;80.02;94722.00;1819636;77;28294;-83
2021/11/27 00:28:26;;;;;;;80.50;44.50;;;;;;;3.60;80.04;94718.58;1819817;77;25778;-84
2021/11/27 00:30:56;;;;;;;79.58;41.83;;;;;;;3.63;80.07;94723.43;1819779;77;25743;-85
2021/11/27 00:33:23;;;;;;;69.62;39.25;;;;;;;3.64;80.00;94731.72;1819830;77;25785;-85
2021/11/27 00:35:50;;;;;;;58.17;34.58;;;;;;;3.62;79.97;94740.51;1819894;77;25738;-84
2021/11/27 00:38:17;;;;;;;55.15;32.67;;;;;;;3.60;79.99;94742.59;1819971;77;27358;-84
2021/11/27 00:40:46;;;;;;;47.40;27.80;;;;;;;3.63;80.00;94747.44;1819752;77;25828;-83
2021/11/27 00:43:13;;;;;;;40.48;25.55;;;;;;;3.64;79.96;94741.06;1819829;78;26421;-83
2021/11/27 00:45:43;;;;;;;38.70;25.20;;;;;;;3.58;79.84;94754.01;1819811;77;26881;-83
2021/11/27 00:48:13;;;;;;;34.43;20.52;;;;;;;3.55;79.79;94758.47;1819783;77;26404;-84
2021/11/27 00:50:48;;;;;;;34.60;20.37;;;;;;;3.53;79.76;94763.22;1820023;77;27308;-84
2021/11/27 00:53:15;;;;;;;34.98;21.12;;;;;;;3.45;79.69;94763.57;1819812;78;25757;-84
2021/11/27 00:55:42;;;;;;;33.28;20.82;;;;;;;3.43;79.82;94762.47;1819944;77;25739;-83
2021/11/27 00:58:10;;;;;;;32.95;20.00;;;;;;;3.42;79.76;94767.50;1819801;77;26965;-84
2021/11/27 01:00:44;;;;;;;34.95;21.20;;;;;;;3.37;79.71;94774.59;1819783;77;25261;-85
2021/11/27 01:03:13;;;;;;;32.35;19.95;;;;;;;3.37;79.78;94771.92;1777991;79;27427;-83
2021/11/27 01:05:42;;;;;;;33.33;19.00;;;;;;;3.38;79.84;94774.88;1791538;78;25685;-84
2021/11/27 01:08:10;;;;;;;32.70;18.82;;;;;;;3.38;79.74;94774.88;1791495;80;25701;-82
2021/11/27 01:10:42;;;;;;;30.30;17.05;;;;;;;3.34;79.66;94780.37;1819977;77;25942;-83
2021/11/27 01:13:09;;;;;;;26.12;15.88;;;;;;;3.29;79.53;94780.23;1791099;77;25794;-85
2021/11/27 01:15:36;;;;;;;27.00;14.47;;;;;;;3.16;79.33;94786.59;1819848;78;27357;-84
2021/11/27 01:18:04;;;;;;;27.62;15.75;;;;;;;3.07;79.22;94784.78;1819709;77;26467;-83
2021/11/27 01:20:36;;;;;;;32.10;16.95;;;;;;;3.06;79.16;94789.00;1819839;77;25437;-84
2021/11/27 01:23:03;;;;;;;31.35;18.67;;;;;;;2.98;79.12;94786.68;1818768;77;26894;-85
2021/11/27 01:25:30;;;;;;;31.77;16.77;;;;;;;2.95;79.20;94793.78;1819754;77;25906;-84
2021/11/27 01:27:57;;;;;;;30.72;16.50;;;;;;;2.91;79.24;94796.09;1819787;77;27374;-85
2021/11/27 01:30:24;;;;;;;29.77;16.77;;;;;;;2.88;79.15;94789.90;1819712;77;25253;-83
2021/11/27 01:32:51;;;;;;;28.77;15.80;;;;;;;2.83;79.04;94790.57;1819804;77;25769;-86
2021/11/27 01:35:18;;;;;;;29.15;15.18;;;;;;;2.82;79.02;94794.78;1819776;77;26021;-85
2021/11/27 01:37:45;;;;;;;26.97;13.75;;;;;;;2.81;78.94;94801.97;1819836;77;25640;-83
2021/11/27 01:40:17;;;;;;;22.93;13.78;;;;;;;2.80;78.72;94791.53;1819871;77;27000;-83
2021/11/27 01:42:45;;;;;;;21.93;12.43;;;;;;;2.80;78.69;94792.86;1819721;77;30387;-84
2021/11/27 01:45:15;;;;;;;21.50;12.37;;;;;;;2.81;78.60;94793.97;1819712;77;26355;-85
2021/11/27 01:47:50;;;;;;;23.32;12.88;;;;;;;2.80;78.25;94798.19;1819709;77;26024;-84
2021/11/27 01:50:17;;;;;;;22.87;12.78;;;;;;;2.77;78.11;94792.01;1819890;77;25826;-84
2021/11/27 01:52:43;;;;;;;21.07;12.68;;;;;;;2.80;78.12;94800.86;1819987;77;27449;-85
2021/11/27 01:55:11;;;;;;;22.00;12.18;;;;;;;2.78;77.96;94796.27;1819819;77;25712;-84
2021/11/27 01:57:38;;;;;;;17.98;10.55;;;;;;;2.80;77.82;94798.19;1819831;77;25781;-84
2021/11/27 02:00:09;;;;;;;21.48;10.70;;;;;;;2.80;77.73;94808.84;1819614;77;27331;-82
2021/11/27 02:02:36;;;;;;;18.87;10.88;;;;;;;2.82;77.69;94818.25;1819823;77;25703;-85
2021/11/27 02:05:04;;;;;;;21.00;10.72;;;;;;;2.85;77.59;94820.47;1819741;77;27522;-82
2021/11/27 02:07:31;;;;;;;18.12;10.68;;;;;;;2.86;77.41;94833.27;1819845;78;25645;-83
2021/11/27 02:09:59;;;;;;;22.58;12.20;;;;;;;2.85;77.36;94824.98;1819481;77;25671;-84
2021/11/27 02:12:26;;;;;;;23.83;12.15;;;;;;;2.84;77.34;94826.02;1819540;77;25704;-83
2021/11/27 02:14:52;;;;;;;20.20;11.85;;;;;;;2.80;77.11;94822.17;1819903;78;25833;-84
2021/11/27 02:17:19;;;;;;;18.25;10.50;;;;;;;2.79;77.20;94819.21;1819860;77;27200;-84
2021/11/27 02:19:46;;;;;;;18.77;10.43;;;;;;;2.83;77.23;94819.06;1819629;77;26255;-83
2021/11/27 02:22:13;;;;;;;19.23;9.78;;;;;;;2.84;77.34;94822.84;1819720;77;25704;-84
2021/11/27 02:24:40;;;;;;;17.73;9.35;;;;;;;2.87;77.27;94822.91;1819812;77;26044;-83
2021/11/27 02:27:06;;;;;;;18.15;9.15;;;;;;;2.90;77.14;94821.91;1817855;78;25719;-84
2021/11/27 02:29:34;;;;;;;16.65;9.83;;;;;;;2.89;76.90;94823.50;1817693;77;26883;-84
2021/11/27 02:32:03;;;;;;;17.48;9.88;;;;;;;2.87;76.90;94832.23;1817713;78;25993;-85
2021/11/27 02:34:29;;;;;;;19.37;9.88;;;;;;;2.88;76.91;94831.20;1817697;77;25710;-84
2021/11/27 02:37:01;;;;;;;17.37;9.55;;;;;;;2.92;76.79;94828.36;1817748;77;26330;-85
2021/11/27 02:39:29;;;;;;;15.32;8.48;;;;;;;2.97;76.54;94833.02;1803022;77;25699;-85
2021/11/27 02:41:56;;;;;;;18.57;10.05;;;;;;;3.00;76.42;94825.39;1817747;77;27509;-85
2021/11/27 02:44:30;;;;;;;25.27;12.33;;;;;;;3.03;76.42;94828.91;1817597;77;25276;-85
2021/11/27 02:46:59;;;;;;;21.85;11.35;;;;;;;3.05;76.40;94822.84;1817755;77;25370;-85
2021/11/27 02:49:25;;;;;;;20.37;11.55;;;;;;;3.03;76.55;94819.58;1817677;77;25660;-83
2021/11/27 02:51:54;;;;;;;14.38;7.92;;;;;;;3.02;76.42;94801.19;1817888;78;25763;-84
2021/11/27 02:54:20;;;;;;;26.73;12.95;;;;;;;2.96;76.24;94789.56;1817889;77;27363;-85
2021/11/27 02:56:47;;;;;;;23.38;13.08;;;;;;;2.92;76.12;94797.71;1817730;77;25742;-82
2021/11/27 02:59:25;;;;;;;20.82;10.30;;;;;;;2.87;76.22;94794.94;1817779;78;25800;-83
2021/11/27 03:01:56;;;;;;;15.93;9.60;;;;;;;2.89;76.29;94780.87;1817756;77;25935;-84
2021/11/27 03:04:27;;;;;;;15.32;8.48;;;;;;;2.87;76.25;94778.43;1817757;78;26467;-84
2021/11/27 03:06:54;;;;;;;16.45;8.43;;;;;;;2.85;76.10;94795.16;1817332;77;27334;-83
2021/11/27 03:09:21;;;;;;;14.00;7.90;;;;;;;2.80;75.98;94793.67;1817574;77;25795;-82
2021/11/27 03:11:53;;;;;;;15.83;8.53;;;;;;;2.78;75.88;94807.73;1817810;78;25752;-84
2021/11/27 03:14:22;;;;;;;13.28;7.70;;;;;;;2.80;75.87;94807.52;1817825;77;25731;-85
2021/11/27 03:16:50;;;;;;;17.12;8.88;;;;;;;2.73;75.86;94826.78;1817870;77;25761;-83
2021/11/27 03:19:17;;;;;;;14.35;8.48;;;;;;;2.70;76.03;94841.87;1817715;77;27430;-84
2021/11/27 03:21:44;;;;;;;13.98;7.83;;;;;;;2.71;76.05;94852.83;1817808;77;25726;-84
2021/11/27 03:24:12;;;;;;;18.17;8.58;;;;;;;2.75;76.04;94860.67;1817851;78;25763;-83
2021/11/27 03:26:39;;;;;;;15.08;8.43;;;;;;;2.75;75.99;94868.16;1817380;77;25986;-83
2021/11/27 03:29:06;;;;;;;15.63;8.40;;;;;;;2.73;75.75;94877.40;1817688;77;25272;-83
2021/11/27 03:31:32;;;;;;;15.38;7.85;;;;;;;2.73;75.77;94888.05;1815651;77;27352;-83
2021/11/27 03:34:00;;;;;;;14.18;8.55;;;;;;;2.73;75.73;94888.87;1817697;77;26164;-83
2021/11/27 03:36:27;;;;;;;16.97;8.73;;;;;;;2.71;75.63;94895.45;1817663;77;25693;-83
2021/11/27 03:38:53;;;;;;;15.05;8.43;;;;;;;2.71;75.58;94899.45;1817927;77;25927;-84
2021/11/27 03:41:20;;;;;;;12.55;7.35;;;;;;;2.71;75.47;94903.44;1817729;77;25969;-85
2021/11/27 03:43:47;;;;;;;14.28;8.13;;;;;;;2.70;75.35;94905.81;1817788;77;28138;-83
2021/11/27 03:46:14;;;;;;;13.00;7.87;;;;;;;2.71;75.31;94913.58;1817587;77;25766;-84
2021/11/27 03:48:44;;;;;;;9.98;6.78;;;;;;;2.69;75.16;94924.16;1817823;77;25699;-83
2021/11/27 03:51:16;;;;;;;13.78;7.87;;;;;;;2.69;75.10;94934.30;1817644;77;27055;-86
2021/11/27 03:53:44;;;;;;;16.27;8.63;;;;;;;2.70;75.10;94939.10;1817816;76;25750;-86
2021/11/27 03:56:15;;;;;;;14.68;8.13;;;;;;;2.70;75.17;94941.77;1817973;77;27352;-84
2021/11/27 03:58:42;;;;;;;12.80;7.90;;;;;;;2.68;75.09;94941.17;1817780;77;26382;-83
2021/11/27 04:01:11;;;;;;;13.68;8.05;;;;;;;2.65;75.02;94937.12;1817878;77;25702;-86
2021/11/27 04:03:41;;;;;;;12.75;7.67;;;;;;;2.66;75.00;94938.72;1817942;77;25981;-85
2021/11/27 04:06:09;;;;;;;13.83;7.85;;;;;;;2.66;75.06;94931.25;1817905;77;25825;-84
2021/11/27 04:08:36;;;;;;;14.58;8.45;;;;;;;2.64;75.08;94938.16;1818024;78;27522;-85
2021/11/27 04:11:03;;;;;;;12.15;7.22;;;;;;;2.67;75.02;94938.20;1817612;78;25795;-84
2021/11/27 04:13:30;;;;;;;10.82;7.87;;;;;;;2.66;75.08;94943.23;1817973;78;25775;-85
2021/11/27 04:15:57;;;;;;;12.78;7.10;;;;;;;2.66;74.94;94941.91;1817956;78;26122;-82
2021/11/27 04:18:24;;;;;;;11.80;7.05;;;;;;;2.66;74.66;94941.39;1817924;77;25662;-85
2021/11/27 04:20:51;;;;;;;12.80;7.78;;;;;;;2.67;74.63;94937.69;1817931;78;27488;-84
2021/11/27 04:23:19;;;;;;;13.13;7.75;;;;;;;2.67;74.57;94940.87;1817815;77;25736;-83
2021/11/27 04:25:47;;;;;;;13.48;7.67;;;;;;;2.68;74.54;94949.16;1818296;78;25666;-84
2021/11/27 04:28:13;;;;;;;12.78;8.28;;;;;;;2.65;74.53;94949.63;1820068;77;26009;-83
2021/11/27 04:30:41;;;;;;;13.18;7.67;;;;;;;2.64;74.51;94952.80;1819905;77;25684;-85
2021/11/27 04:33:08;;;;;;;13.05;8.18;;;;;;;2.63;74.50;94955.17;1819862;77;27458;-84
2021/11/27 04:35:36;;;;;;;13.03;8.03;;;;;;;2.62;74.43;94953.54;1819713;77;25887;-84
2021/11/27 04:38:04;;;;;;;12.53;7.72;;;;;;;2.53;74.42;94951.70;1819950;77;25632;-84
2021/11/27 04:40:33;;;;;;;12.70;7.72;;;;;;;2.50;74.40;94959.30;1819959;77;26056;-83
2021/11/27 04:43:01;;;;;;;13.53;8.35;;;;;;;2.50;74.38;94965.45;1819927;77;25830;-85
2021/11/27 04:45:30;;;;;;;13.13;7.85;;;;;;;2.47;74.33;94963.22;1819849;77;27362;-83
2021/11/27 04:47:57;;;;;;;12.73;8.15;;;;;;;2.47;74.40;94977.86;1819730;77;26232;-85
2021/11/27 04:50:24;;;;;;;12.98;8.20;;;;;;;2.50;74.39;94973.44;1819918;77;25718;-85
2021/11/27 04:52:51;;;;;;;14.70;8.58;;;;;;;2.55;74.37;94975.41;1819879;77;26189;-83
2021/11/27 04:55:18;;;;;;;13.93;8.83;;;;;;;2.60;74.33;94968.11;1820006;77;26601;-83
2021/11/27 04:57:46;;;;;;;14.03;9.15;;;;;;;2.64;74.29;94974.11;1820026;77;27359;-83
2021/11/27 05:00:24;;;;;;;14.07;8.48;;;;;;;2.67;74.33;94979.49;1819774;78;25679;-86
2021/11/27 05:02:51;;;;;;;14.18;9.10;;;;;;;2.72;74.32;94988.98;1819925;78;25712;-83
2021/11/27 05:05:17;;;;;;;12.93;8.78;;;;;;;2.71;74.33;94991.34;1819587;78;26652;-85
2021/11/27 05:07:44;;;;;;;14.30;9.18;;;;;;;2.72;74.30;94990.31;1819942;78;25717;-85
2021/11/27 05:10:13;;;;;;;16.70;9.50;;;;;;;2.74;74.32;94990.91;1819903;78;27537;-84
2021/11/27 05:12:40;;;;;;;20.50;11.40;;;;;;;2.74;74.33;95001.05;1819268;77;25691;-83
2021/11/27 05:15:09;;;;;;;19.70;11.35;;;;;;;2.75;74.38;95001.86;1819909;77;25822;-84
2021/11/27 05:17:36;;;;;;;15.78;10.23;;;;;;;2.76;74.46;95007.49;1819944;77;25988;-83
2021/11/27 05:20:06;;;;;;;20.88;13.83;;;;;;;2.77;74.60;95002.47;1819898;77;25641;-84
2021/11/27 05:22:33;;;;;;;20.62;12.80;;;;;;;2.80;74.54;95004.66;1819898;77;27515;-83
2021/11/27 05:25:01;;;;;;;17.15;10.53;;;;;;;2.81;74.53;95005.78;1819815;77;25735;-85
2021/11/27 05:27:28;;;;;;;14.03;9.10;;;;;;;2.85;74.49;95011.48;1818174;77;25755;-85
2021/11/27 05:29:56;;;;;;;19.20;11.43;;;;;;;2.86;74.45;95007.79;1817915;77;26044;-84
2021/11/27 05:32:39;;;;;;;30.68;14.60;;;;;;;2.87;74.43;95008.91;1817941;77;26433;-84
2021/11/27 05:34:55;;;;;;;27.93;14.50;;;;;;;2.81;74.38;95003.11;1815781;77;27366;-83
2021/11/27 05:37:22;;;;;;;25.25;12.60;;;;;;;2.78;74.48;95005.39;1817689;77;25727;-83
2021/11/27 05:39:49;;;;;;;24.90;11.57;;;;;;;2.79;74.53;95004.36;1817996;77;25758;-84
2021/11/27 05:42:17;;;;;;;23.42;13.13;;;;;;;2.82;74.50;95001.27;1817498;78;26095;-83
2021/11/27 05:44:47;;;;;;;21.62;11.18;;;;;;;2.77;74.63;94991.30;1817985;77;25715;-84
2021/11/27 05:47:14;;;;;;;20.60;11.95;;;;;;;2.73;74.72;94994.61;1817831;78;27179;-85
2021/11/27 05:49:40;;;;;;;17.77;10.72;;;;;;;2.61;74.64;94999.03;1817854;77;25722;-84
2021/11/27 05:52:08;;;;;;;18.23;11.70;;;;;;;2.45;74.58;94993.75;1817936;78;25174;-83
2021/11/27 05:54:35;;;;;;;21.93;12.35;;;;;;;2.35;74.73;94996.92;1795336;78;25987;-84
2021/11/27 05:57:02;;;;;;;18.90;11.50;;;;;;;2.32;74.84;95005.85;1817746;77;26468;-85
2021/11/27 05:59:30;;;;;;;21.35;11.12;;;;;;;2.26;74.79;95003.56;1817781;77;27500;-84
2021/11/27 06:01:57;;;;;;;18.32;10.75;;;;;;;2.19;74.78;95010.77;1817811;77;25245;-83
2021/11/27 06:04:24;;;;;;;17.73;11.05;;;;;;;2.15;74.83;95021.06;1817806;77;25829;-83
2021/11/27 06:06:51;;;;;;;20.43;11.20;;;;;;;2.04;74.74;95027.59;1817807;77;26053;-84
2021/11/27 06:09:18;;;;;;;17.92;10.90;;;;;;;1.98;74.90;95028.45;1817855;78;25726;-84
2021/11/27 06:11:45;;;;;;;17.23;10.55;;;;;;;1.92;74.95;95025.33;1817504;77;28074;-85
2021/11/27 06:14:12;;;;;;;20.30;12.60;;;;;;;1.81;74.91;95032.16;1817767;77;26501;-84
2021/11/27 06:16:39;;;;;;;18.57;10.55;;;;;;;1.76;75.10;95039.44;1817896;77;25742;-84
2021/11/27 06:19:06;;;;;;;17.10;11.18;;;;;;;1.69;75.08;95049.29;1817573;77;26241;-85
2021/11/27 06:21:33;;;;;;;17.17;10.93;;;;;;;1.59;75.30;95048.94;1817885;77;25755;-85
2021/11/27 06:23:59;;;;;;;17.77;11.25;;;;;;;1.57;75.36;95052.32;1817624;77;27413;-85
2021/11/27 06:26:26;;;;;;;25.00;13.65;;;;;;;1.48;75.42;95054.11;1817337;77;25771;-85
2021/11/27 06:28:53;;;;;;;25.82;15.25;;;;;;;1.42;75.58;95056.61;1817611;77;25327;-85
2021/11/27 06:31:20;;;;;;;24.20;14.75;;;;;;;1.41;75.75;95055.48;1817827;77;26073;-85
2021/11/27 06:33:47;;;;;;;25.48;14.40;;;;;;;1.41;75.80;95057.64;1817351;77;25870;-85
2021/11/27 06:36:13;;;;;;;27.55;16.35;;;;;;;1.42;75.94;95064.59;1817915;77;27335;-85
2021/11/27 06:38:40;;;;;;;30.50;19.32;;;;;;;1.39;75.94;95062.86;1817622;77;25230;-84
2021/11/27 06:41:07;;;;;;;25.52;16.40;;;;;;;1.42;76.12;95066.42;1817893;78;25700;-85
2021/11/27 06:43:33;;;;;;;29.57;17.87;;;;;;;1.42;76.16;95067.76;1817556;78;25652;-86
2021/11/27 06:46:00;;;;;;;28.73;16.32;;;;;;;1.42;76.21;95061.11;1817609;77;25230;-85
2021/11/27 06:48:28;;;;;;;27.15;16.60;;;;;;;1.42;76.32;95057.94;1817883;77;28195;-85
2021/11/27 06:50:55;;;;;;;27.25;17.00;;;;;;;1.45;76.40;95056.68;1794971;78;25715;-86
2021/11/27 06:53:21;;;;;;;32.88;18.00;;;;;;;1.43;76.47;95050.78;1817794;78;25743;-85
2021/11/27 06:55:48;;;;;;;44.15;22.80;;;;;;;1.47;76.60;95059.95;1816899;77;26059;-85
2021/11/27 06:58:15;;;;;;;47.08;24.85;;;;;;;1.50;76.72;95064.03;1817514;77;25741;-85
2021/11/27 07:00:41;;;;;;;47.03;24.15;;;;;;;1.57;76.79;95076.25;1818025;77;26860;-85
2021/11/27 07:03:08;;;;;;;50.90;26.23;;;;;;;1.63;76.82;95082.06;1817659;77;26522;-85
2021/11/27 07:05:34;;;;;;;59.38;29.55;;;;;;;1.70;76.82;95086.01;1817460;77;26590;-85
2021/11/27 07:08:01;;;;;;;51.70;27.48;;;;;;;1.74;76.79;95081.39;1817458;78;26652;-85
2021/11/27 07:10:27;;;;;;;53.65;26.90;;;;;;;1.80;76.89;95088.53;1787652;78;26399;-85
2021/11/27 07:12:54;;;;;;;53.83;28.40;;;;;;;1.86;76.88;95094.02;1794764;78;27353;-85
2021/11/27 07:15:21;;;;;;;47.93;26.60;;;;;;;1.87;76.90;95086.34;1817115;77;25930;-85
2021/11/27 07:17:47;;;;;;;51.55;28.15;;;;;;;1.87;76.84;95088.48;1817636;77;25684;-85
2021/11/27 07:20:14;;;;;;;53.55;28.45;;;;;;;1.91;76.88;95092.36;1817810;77;26035;-85
2021/11/27 07:22:41;;;;;;;53.98;29.95;;;;;;;1.97;76.85;95099.47;1817200;78;25770;-85
2021/11/27 07:25:08;;;;;;;74.80;35.38;;;;;;;1.98;76.86;95098.95;1817399;77;27350;-85
2021/11/27 07:27:35;;;;;;;77.20;35.33;;;;;;;1.99;76.79;95107.23;1817151;77;25404;-85
2021/11/27 07:30:02;;;;;;;70.40;33.53;;;;;;;2.03;76.90;95094.64;1817882;77;26256;-85
2021/11/27 07:32:28;;;;;;;68.47;31.33;;;;;;;2.12;77.06;95099.17;1817938;78;25892;-85
2021/11/27 07:34:55;;;;;;;64.70;30.68;;;;;;;2.21;77.05;95097.88;1818190;78;25629;-85
2021/11/27 07:37:21;;;;;;;58.10;29.10;;;;;;;2.30;77.03;95099.23;1817968;77;28205;-84
2021/11/27 07:39:48;;;;;;;49.13;26.17;;;;;;;2.34;76.96;95091.64;1817826;77;25779;-85
2021/11/27 07:42:15;;;;;;;44.70;25.45;;;;;;;2.31;76.99;95102.72;1817641;77;25644;-86
2021/11/27 07:44:42;;;;;;;43.05;24.80;;;;;;;2.29;77.09;95094.98;1817582;77;25997;-86
2021/11/27 07:47:08;;;;;;;48.52;28.23;;;;;;;2.30;77.06;95097.91;1817867;78;25225;-86
2021/11/27 07:49:35;;;;;;;47.05;26.12;;;;;;;2.31;76.91;95096.88;1817899;77;27330;-86
2021/11/27 07:52:01;;;;;;;54.45;27.70;;;;;;;2.33;76.89;95094.00;1817671;77;25620;-85
2021/11/27 07:54:28;;;;;;;57.15;31.23;;;;;;;2.35;76.87;95102.08;1817968;78;25671;-86
2021/11/27 07:56:56;;;;;;;52.17;28.07;;;;;;;2.39;76.74;95099.30;1817836;77;26622;-85
2021/11/27 07:59:23;;;;;;;52.25;28.95;;;;;;;2.42;76.66;95096.17;1817891;77;25719;-85
2021/11/27 08:01:50;;;;;;;47.25;26.97;;;;;;;2.45;76.70;95085.61;1817653;77;27419;-86
2021/11/27 08:04:18;;;;;;;51.33;28.67;;;;;;;2.51;76.77;95081.58;1817839;78;25272;-86
2021/11/27 08:06:44;;;;;;;56.58;29.60;;;;;;;2.61;76.83;95081.60;1817986;78;25822;-86
2021/11/27 08:09:11;;;;;;;58.08;31.30;;;;;;;2.72;76.87;95088.36;1817724;78;26035;-85
2021/11/27 08:11:38;;;;;;;61.90;34.48;;;;;;;2.81;76.74;95091.03;1804746;78;25733;-85
2021/11/27 08:14:04;;;;;;;64.50;33.10;;;;;;;2.89;76.68;95090.77;1817920;78;27397;-86
2021/11/27 08:16:31;;;;;;;51.48;27.40;;;;;;;2.96;76.55;95090.70;1817739;78;25651;-85
2021/11/27 08:18:59;;;;;;;49.15;24.52;;;;;;;3.02;76.39;95100.45;1818015;77;25726;-86
2021/11/27 08:21:25;;;;;;;54.08;28.02;;;;;;;3.01;76.15;95104.19;1817916;78;26043;-85
2021/11/27 08:23:52;;;;;;;52.67;26.33;;;;;;;3.05;76.18;95102.69;1818059;78;25735;-85
2021/11/27 08:26:19;;;;;;;57.00;27.73;;;;;;;3.12;76.17;95106.13;1817818;78;27380;-85
2021/11/27 08:28:47;;;;;;;52.10;24.70;;;;;;;3.21;76.18;95112.78;1819111;77;25872;-86
2021/11/27 08:31:14;;;;;;;36.70;21.52;;;;;;;3.33;76.03;95132.05;1819964;78;25774;-85
2021/11/27 08:33:41;;;;;;;35.65;21.07;;;;;;;3.36;75.62;95128.42;1819893;77;26045;-85
2021/11/27 08:36:08;;;;;;;40.67;23.02;;;;;;;3.44;75.58;95129.97;1819994;78;25724;-85
2021/11/27 08:38:34;;;;;;;40.52;24.40;;;;;;;3.47;75.31;95129.53;1819825;78;28055;-86
2021/11/27 08:41:01;;;;;;;39.78;23.65;;;;;;;3.55;75.35;95123.37;1819747;78;25685;-85
2021/11/27 08:43:28;;;;;;;39.33;22.25;;;;;;;3.71;75.50;95130.48;1819819;77;25696;-86
2021/11/27 08:45:54;;;;;;;31.12;18.82;;;;;;;3.85;75.59;95130.63;1819807;77;26024;-86
2021/11/27 08:48:21;;;;;;;23.95;14.63;;;;;;;4.06;75.19;95133.32;1820102;77;25724;-85
2021/11/27 08:50:47;;;;;;;20.10;13.60;;;;;;;4.20;74.76;95138.78;1819946;78;27403;-86
2021/11/27 08:53:14;;;;;;;20.48;14.18;;;;;;;4.35;74.46;95141.83;1819864;77;25724;-86
2021/11/27 08:55:41;;;;;;;20.27;12.90;;;;;;;4.46;74.08;95137.59;1819860;77;25712;-86
2021/11/27 08:58:07;;;;;;;19.60;12.63;;;;;;;4.56;73.84;95144.00;1819834;77;26024;-85
2021/11/27 09:00:34;;;;;;;18.15;12.33;;;;;;;4.64;73.52;95149.01;1819897;78;25718;-85
2021/11/27 09:03:00;;;;;;;20.37;12.47;;;;;;;4.68;73.22;95146.19;1819827;77;27405;-85
2021/11/27 09:05:27;;;;;;;20.95;14.43;;;;;;;4.67;72.93;95154.42;1819792;77;25767;-85
2021/11/27 09:07:53;;;;;;;22.45;13.58;;;;;;;4.71;73.08;95149.71;1819942;78;25737;-85
2021/11/27 09:10:22;;;;;;;18.57;12.18;;;;;;;4.80;73.05;95148.88;1819917;77;25977;-85
2021/11/27 09:12:49;;;;;;;20.10;11.28;;;;;;;4.88;72.83;95153.06;1789882;78;25778;-85
2021/11/27 09:15:16;;;;;;;16.70;10.93;;;;;;;4.95;72.48;95140.42;1819962;78;28452;-85
2021/11/27 09:17:42;;;;;;;13.83;9.40;;;;;;;4.92;72.10;95148.37;1819712;77;25709;-85
2021/11/27 09:20:10;;;;;;;18.37;11.60;;;;;;;4.95;72.06;95137.74;1819824;77;25719;-86
2021/11/27 09:22:36;;;;;;;15.55;10.00;;;;;;;5.02;71.94;95147.79;1819893;77;26559;-85
2021/11/27 09:25:04;;;;;;;18.60;11.35;;;;;;;5.03;71.68;95151.58;1819865;77;25802;-86
2021/11/27 09:27:31;;;;;;;14.33;10.20;;;;;;;5.13;71.62;95161.69;1819754;77;28536;-86
2021/11/27 09:29:57;;;;;;;15.72;10.55;;;;;;;5.21;71.63;95160.00;1820233;77;26153;-85
2021/11/27 09:32:24;;;;;;;14.83;10.58;;;;;;;5.23;71.25;95163.26;1820184;77;25741;-85
2021/11/27 09:34:51;;;;;;;21.57;10.53;;;;;;;5.28;71.04;95148.67;1820013;77;26591;-86
2021/11/27 09:37:18;;;;;;;30.52;10.90;;;;;;;5.48;71.19;95157.67;1820169;77;25700;-86
2021/11/27 09:39:46;;;;;;;15.03;9.65;;;;;;;5.77;71.01;95162.59;1820163;78;27354;-87
2021/11/27 09:42:18;;;;;;;16.45;10.65;;;;;;;6.01;70.35;95165.53;1820011;77;25648;-86
2021/11/27 09:44:48;;;;;;;16.23;10.38;;;;;;;6.11;70.37;95155.02;1820384;77;26441;-86
2021/11/27 09:47:16;;;;;;;16.15;11.40;;;;;;;6.37;69.97;95156.32;1820125;77;25988;-86
2021/11/27 09:49:44;;;;;;;21.17;13.13;;;;;;;6.55;69.68;95153.95;1820217;77;25754;-86
2021/11/27 09:52:12;;;;;;;19.77;11.78;;;;;;;6.65;69.28;95143.93;1820233;77;27498;-86
2021/11/27 09:54:40;;;;;;;15.05;10.35;;;;;;;6.64;69.05;95145.80;1819837;77;25319;-86
2021/11/27 09:57:09;;;;;;;15.80;10.45;;;;;;;6.65;68.68;95143.93;1820069;77;25783;-86
2021/11/27 09:59:37;;;;;;;13.10;9.55;;;;;;;6.67;68.55;95143.17;1819844;77;26747;-86
2021/11/27 10:02:07;;;;;;;15.38;10.25;;;;;;;6.80;68.52;95151.72;1820152;77;25783;-86
2021/11/27 10:04:34;;;;;;;15.32;10.55;;;;;;;6.82;68.22;95150.14;1820056;77;28279;-86
2021/11/27 10:07:01;;;;;;;15.58;10.40;;;;;;;6.94;67.95;95148.72;1819991;78;25722;-87
2021/11/27 10:09:28;;;;;;;15.13;9.90;;;;;;;6.94;67.50;95161.61;1820181;77;25752;-87
2021/11/27 10:11:55;;;;;;;15.28;10.15;;;;;;;6.99;67.36;95160.89;1820112;77;26694;-87
2021/11/27 10:14:23;;;;;;;15.63;9.58;;;;;;;7.24;67.57;95163.42;1819763;77;25723;-86
2021/11/27 10:17:03;;;;;;;16.17;10.08;;;;;;;7.59;67.35;95168.53;1820072;78;27393;-86
2021/11/27 10:19:59;;;;;;;15.20;9.18;;;;;;;7.87;66.75;95172.93;1819216;78;25715;-86
2021/11/27 10:22:49;;;;;;;14.40;9.60;;;;;;;8.06;66.37;95165.40;1810981;77;25767;-86
2021/11/27 10:25:24;;;;;;;13.00;9.18;;;;;;;8.27;66.01;95167.27;1820197;78;26025;-86
2021/11/27 10:27:53;;;;;;;11.45;8.45;;;;;;;8.51;65.68;95150.88;1819756;77;25771;-86
2021/11/27 10:30:21;;;;;;;13.05;9.63;;;;;;;8.77;65.28;95163.53;1817827;77;27533;-86
2021/11/27 10:32:49;;;;;;;13.18;9.15;;;;;;;9.03;64.89;95150.59;1817746;77;25613;-87
2021/11/27 10:35:20;;;;;;;13.25;9.20;;;;;;;9.23;64.45;95157.20;1817831;77;25726;-86
2021/11/27 10:37:50;;;;;;;12.93;8.78;;;;;;;9.34;64.31;95161.05;1817773;78;26765;-87
2021/11/27 10:40:27;;;;;;;14.03;9.15;;;;;;;9.18;63.49;95162.52;1817848;78;26093;-86
2021/11/27 10:43:00;;;;;;;13.75;9.50;;;;;;;8.99;63.28;95168.30;1817878;77;27402;-87
2021/11/27 10:45:34;;;;;;;13.98;9.65;;;;;;;8.73;63.08;95157.55;1817686;78;25890;-87
2021/11/27 10:48:14;;;;;;;13.43;9.68;;;;;;;8.59;63.22;95149.08;1817850;78;26323;-86
2021/11/27 10:50:59;;;;;;;13.08;9.03;;;;;;;8.45;62.88;95147.88;1817791;77;25996;-87
2021/11/27 10:53:33;;;;;;;14.25;9.83;;;;;;;8.26;63.10;95140.63;1817881;78;25214;-88
2021/11/27 10:56:11;;;;;;;12.63;9.15;;;;;;;8.44;63.55;95145.72;1817822;77;27363;-87
2021/11/27 10:59:02;;;;;;;13.98;9.50;;;;;;;8.68;63.38;95150.27;1817726;76;25775;-88
2021/11/27 11:01:29;;;;;;;10.90;8.48;;;;;;;8.85;63.04;95146.10;1817763;77;25695;-87
2021/11/27 11:04:17;;;;;;;12.82;9.63;;;;;;;9.02;62.37;95146.27;1817735;77;25987;-87
2021/11/27 11:06:46;;;;;;;12.60;8.45;;;;;;;9.22;62.55;95152.87;1817781;78;26195;-87
2021/11/27 11:09:15;;;;;;;13.45;9.30;;;;;;;9.33;61.45;95159.42;1817780;77;27347;-87
2021/11/27 11:11:41;;;;;;;13.48;8.80;;;;;;;9.13;61.41;95151.20;1817756;77;25640;-87
2021/11/27 11:14:25;;;;;;;13.45;9.00;;;;;;;8.92;61.12;95155.61;1817615;77;25178;-87
2021/11/27 11:16:59;;;;;;;14.10;9.20;;;;;;;8.72;61.31;95155.92;1817707;77;26142;-87
2021/11/27 11:19:29;;;;;;;14.53;9.90;;;;;;;8.59;61.60;95162.52;1817643;77;25728;-87
2021/11/27 11:22:17;;;;;;;15.25;10.20;;;;;;;8.43;61.54;95159.41;1817758;77;28018;-87
2021/11/27 11:24:46;;;;;;;12.60;9.20;;;;;;;8.29;61.43;95155.73;1817550;78;25825;-88
2021/11/27 11:27:31;;;;;;;15.58;10.10;;;;;;;8.14;61.51;95151.52;1817831;77;25983;-88
2021/11/27 11:30:01;;;;;;;14.53;9.60;;;;;;;8.04;61.59;95151.39;1817069;76;26254;-87
2021/11/27 11:32:27;;;;;;;17.48;11.00;;;;;;;7.95;61.89;95155.05;1817438;77;25252;-87
2021/11/27 11:35:01;;;;;;;15.30;10.35;;;;;;;7.91;62.29;95150.42;1817604;77;28042;-88